Terminal Aerodrome Forecast
Issued by NWS

Home | Current Version | Previous Version | Text Only | Print | Product List | Glossary On
Versions: 1 2 3 4 5 6 7 8 9 10 11 12 13 14 15 16 17 18 19 20 21 22 23 24 25 26 27 28 29 30
562
FTUS44 KEWX 282325
TAFSSF
TAF
KSSF 282325Z 2900/2924 10010KT P6SM SCT060 BKN150
     FM290800 12005KT P6SM BKN015
     FM291000 10005KT P6SM BKN009
     FM291500 17005KT P6SM BKN025
     FM291800 15010KT P6SM SCT050=

USA.gov is the U.S. government's official web portal to all federal, state and local government web resources and services.